createdAt,value
2022-11-28T00:00:44.707Z,54.00
2022-11-28T00:03:32.801Z,51.20
2022-11-28T00:06:08.860Z,48.00
2022-11-28T00:08:41.781Z,53.30
2022-11-28T00:11:17.591Z,63.40
2022-11-28T00:13:50.513Z,55.90
2022-11-28T00:16:25.059Z,55.90
2022-11-28T00:19:00.220Z,54.50
2022-11-28T00:21:32.958Z,50.20
2022-11-28T00:24:06.436Z,51.60
2022-11-28T00:26:41.735Z,57.20
2022-11-28T00:29:14.637Z,57.80
2022-11-28T00:31:47.187Z,53.20
2022-11-28T00:34:19.786Z,48.70
2022-11-28T00:36:52.678Z,54.50
2022-11-28T00:39:25.593Z,48.60
2022-11-28T00:41:58.333Z,49.70
2022-11-28T00:44:30.857Z,47.50
2022-11-28T00:47:03.512Z,49.20
2022-11-28T00:49:36.159Z,50.10
2022-11-28T00:52:08.870Z,56.80
2022-11-28T00:54:42.100Z,47.10
2022-11-28T00:57:14.814Z,58.10
2022-11-28T00:59:47.316Z,58.70
2022-11-28T01:02:20.016Z,60.10
2022-11-28T01:04:52.554Z,56.20
2022-11-28T01:07:25.089Z,49.90
2022-11-28T01:09:57.611Z,54.40
2022-11-28T01:12:30.043Z,54.30
2022-11-28T01:15:02.620Z,52.30
2022-11-28T01:17:35.103Z,49.80
2022-11-28T01:20:12.456Z,51.00
2022-11-28T01:22:44.928Z,50.10
2022-11-28T01:25:17.501Z,52.60
2022-11-28T01:27:49.984Z,55.00
2022-11-28T01:30:22.473Z,50.30
2022-11-28T01:32:58.039Z,47.30
2022-11-28T01:35:30.786Z,58.90
2022-11-28T01:38:03.263Z,51.20
2022-11-28T01:40:45.354Z,52.50
2022-11-28T01:43:17.916Z,49.00
2022-11-28T01:45:50.384Z,53.60
2022-11-28T01:48:27.858Z,54.00
2022-11-28T01:51:04.200Z,54.70
2022-11-28T01:53:41.107Z,51.80
2022-11-28T01:56:19.033Z,55.50
2022-11-28T01:58:55.571Z,58.00
2022-11-28T02:01:28.532Z,50.60
2022-11-28T02:04:01.773Z,51.30
2022-11-28T02:06:35.280Z,51.20
2022-11-28T02:09:10.939Z,46.60
2022-11-28T02:12:12.880Z,50.90
2022-11-28T02:15:20.216Z,50.40
2022-11-28T02:18:11.293Z,39.00
2022-11-28T02:21:29.369Z,49.20
2022-11-28T02:24:54.027Z,54.00
2022-11-28T02:27:54.156Z,50.00
2022-11-28T02:30:35.392Z,51.10
2022-11-28T02:33:22.573Z,53.90
2022-11-28T02:36:04.869Z,55.00
2022-11-28T02:38:49.693Z,45.80
2022-11-28T02:41:32.710Z,41.30
2022-11-28T02:44:14.230Z,48.00
2022-11-28T02:46:54.503Z,45.20
2022-11-28T02:49:34.243Z,43.10
2022-11-28T02:52:13.438Z,54.00
2022-11-28T02:54:47.148Z,55.70
2022-11-28T02:57:19.783Z,53.40
2022-11-28T02:59:55.599Z,53.30
2022-11-28T03:02:31.568Z,44.80
2022-11-28T03:05:14.072Z,54.80
2022-11-28T03:08:22.967Z,52.20
2022-11-28T03:11:04.921Z,51.50
2022-11-28T03:13:48.796Z,46.40
2022-11-28T03:16:30.622Z,52.10
2022-11-28T03:19:12.062Z,53.60
2022-11-28T03:21:50.195Z,46.20
2022-11-28T03:24:33.711Z,46.70
2022-11-28T03:27:11.551Z,47.00
2022-11-28T03:29:49.848Z,46.90
2022-11-28T03:32:27.467Z,45.90
2022-11-28T03:35:11.885Z,44.10
2022-11-28T03:37:49.408Z,46.60
2022-11-28T03:40:27.688Z,51.60
2022-11-28T03:43:06.346Z,49.10
2022-11-28T03:45:43.047Z,40.50
2022-11-28T03:48:19.428Z,46.50
2022-11-28T03:50:59.509Z,45.00
2022-11-28T03:53:37.416Z,41.30
2022-11-28T03:56:16.068Z,54.70
2022-11-28T03:58:55.951Z,45.70
2022-11-28T04:01:37.960Z,48.20
2022-11-28T04:04:21.454Z,48.10
2022-11-28T04:06:59.792Z,45.80
2022-11-28T04:09:44.222Z,46.20
2022-11-28T04:12:25.164Z,39.40
2022-11-28T04:15:01.887Z,47.70
2022-11-28T04:17:44.528Z,44.70
2022-11-28T04:20:25.185Z,45.60
2022-11-28T04:23:02.191Z,50.50
2022-11-28T04:25:36.770Z,44.30
2022-11-28T04:28:16.207Z,46.70
2022-11-28T04:30:51.945Z,51.20
2022-11-28T04:33:28.100Z,57.80
2022-11-28T04:36:02.877Z,47.50
2022-11-28T04:38:37.041Z,43.00
2022-11-28T04:41:16.041Z,49.50
2022-11-28T04:43:54.771Z,52.70
2022-11-28T04:46:32.727Z,46.10
2022-11-28T04:49:05.373Z,48.30
2022-11-28T04:51:46.032Z,50.40
2022-11-28T04:54:25.588Z,47.90
2022-11-28T04:57:03.301Z,49.00
2022-11-28T04:59:35.947Z,45.50
2022-11-28T05:02:09.891Z,55.80
2022-11-28T05:04:44.774Z,58.30
2022-11-28T05:07:17.707Z,47.30
2022-11-28T05:09:51.015Z,55.80
2022-11-28T05:12:23.582Z,55.80
2022-11-28T05:14:56.244Z,52.30
2022-11-28T05:17:28.752Z,56.30
2022-11-28T05:20:01.721Z,65.00
2022-11-28T05:22:34.274Z,53.80
2022-11-28T05:25:07.539Z,45.10
2022-11-28T05:27:40.057Z,50.90
2022-11-28T05:30:16.167Z,60.60
2022-11-28T05:32:49.219Z,60.30
2022-11-28T05:35:21.777Z,49.50
2022-11-28T05:37:54.287Z,63.40
2022-11-28T05:40:26.799Z,59.30
2022-11-28T05:42:59.283Z,62.60
2022-11-28T05:45:31.815Z,67.40
2022-11-28T05:48:04.356Z,49.80
2022-11-28T05:50:40.141Z,66.50
2022-11-28T05:53:13.515Z,56.40
2022-11-28T05:55:46.554Z,59.90
2022-11-28T05:58:19.028Z,70.00
2022-11-28T06:00:51.693Z,56.50
2022-11-28T06:03:24.215Z,67.00
2022-11-28T06:05:56.774Z,76.40
2022-11-28T06:08:29.302Z,48.80
2022-11-28T06:11:02.522Z,52.10
2022-11-28T06:13:35.184Z,61.60
2022-11-28T06:16:11.828Z,57.80
2022-11-28T06:18:44.418Z,49.00
2022-11-28T06:21:17.550Z,57.40
2022-11-28T06:23:50.083Z,65.70
2022-11-28T06:26:25.473Z,62.60
2022-11-28T06:28:58.622Z,58.10
2022-11-28T06:31:32.437Z,58.80
2022-11-28T06:34:04.915Z,50.40
2022-11-28T06:36:37.493Z,62.70
2022-11-28T06:39:11.211Z,51.90
2022-11-28T06:41:44.238Z,52.80
2022-11-28T06:44:18.868Z,65.30
2022-11-28T06:46:51.546Z,61.60
2022-11-28T06:49:24.288Z,57.40
2022-11-28T06:51:57.193Z,59.40
2022-11-28T06:54:30.026Z,57.60
2022-11-28T06:57:02.687Z,50.50
2022-11-28T06:59:35.297Z,64.50
2022-11-28T07:02:08.322Z,57.80
2022-11-28T07:04:41.311Z,52.00
2022-11-28T07:07:16.475Z,58.80
2022-11-28T07:09:49.382Z,50.00
2022-11-28T07:12:21.932Z,53.80
2022-11-28T07:14:54.539Z,51.20
2022-11-28T07:17:27.352Z,55.90
2022-11-28T07:19:59.931Z,60.90
2022-11-28T07:22:32.405Z,56.70
2022-11-28T07:25:05.018Z,51.70
2022-11-28T07:27:37.480Z,66.70
2022-11-28T07:30:12.714Z,69.80
2022-11-28T07:32:45.336Z,57.50
2022-11-28T07:35:17.976Z,63.40
2022-11-28T07:37:50.590Z,65.10
2022-11-28T07:40:23.255Z,60.00
2022-11-28T07:42:55.956Z,52.50
2022-11-28T07:45:47.149Z,53.60
2022-11-28T07:48:21.088Z,53.20
2022-11-28T07:50:53.589Z,55.20
2022-11-28T07:53:26.168Z,51.80
2022-11-28T07:56:01.861Z,50.10
2022-11-28T07:58:34.872Z,50.80
2022-11-28T08:01:15.524Z,50.30
2022-11-28T08:03:48.730Z,50.10
2022-11-28T08:06:23.772Z,50.20
2022-11-28T08:08:58.378Z,45.90
2022-11-28T08:11:31.836Z,47.70
2022-11-28T08:14:04.732Z,39.10
2022-11-28T08:16:41.374Z,54.40
2022-11-28T08:19:14.241Z,54.80
2022-11-28T08:21:46.696Z,47.10
2022-11-28T08:24:19.272Z,49.90
2022-11-28T08:26:51.730Z,43.50
2022-11-28T08:29:24.225Z,43.40
2022-11-28T08:31:56.866Z,43.10
2022-11-28T08:34:29.666Z,46.70
2022-11-28T08:37:02.211Z,48.80
2022-11-28T08:39:34.916Z,40.40
2022-11-28T08:42:07.984Z,44.10
2022-11-28T08:44:40.820Z,43.30
2022-11-28T08:47:13.404Z,47.50
2022-11-28T08:49:46.225Z,42.30
2022-11-28T08:52:19.041Z,48.10
2022-11-28T08:54:51.563Z,40.50
2022-11-28T08:57:24.322Z,43.00
2022-11-28T08:59:56.922Z,41.30
2022-11-28T09:02:29.616Z,48.80
2022-11-28T09:05:02.922Z,50.00
2022-11-28T09:07:35.435Z,48.20
2022-11-28T09:10:10.336Z,42.20
2022-11-28T09:12:43.184Z,39.60
2022-11-28T09:15:16.085Z,39.20
2022-11-28T09:17:48.666Z,39.30
2022-11-28T09:20:21.968Z,41.70
2022-11-28T09:22:54.477Z,37.30
2022-11-28T09:25:27.168Z,41.30
2022-11-28T09:28:01.437Z,41.60
2022-11-28T09:30:34.201Z,43.50
2022-11-28T09:33:07.351Z,35.30
2022-11-28T09:35:42.147Z,37.10
2022-11-28T09:38:14.656Z,47.30
2022-11-28T09:40:49.125Z,44.20
2022-11-28T09:43:30.111Z,37.70
2022-11-28T09:46:07.386Z,39.10
2022-11-28T09:48:44.382Z,38.20
2022-11-28T09:51:27.141Z,42.50
2022-11-28T09:54:09.255Z,39.50
2022-11-28T09:56:42.163Z,45.90
2022-11-28T09:59:28.557Z,50.80
2022-11-28T10:02:16.388Z,39.60
2022-11-28T10:05:00.107Z,39.60
2022-11-28T10:07:44.561Z,34.00
2022-11-28T10:10:30.297Z,38.10
2022-11-28T10:13:14.728Z,31.70
2022-11-28T10:16:02.739Z,33.90
2022-11-28T10:18:44.856Z,33.20
2022-11-28T10:21:29.492Z,34.80
2022-11-28T10:24:06.062Z,32.40
2022-11-28T10:26:40.151Z,30.50
2022-11-28T10:29:26.775Z,31.00
2022-11-28T10:32:02.902Z,31.50
2022-11-28T10:34:42.513Z,33.40
2022-11-28T10:37:20.984Z,32.50
2022-11-28T10:39:54.317Z,31.50
2022-11-28T10:42:33.946Z,23.00
2022-11-28T10:45:19.656Z,24.70
2022-11-28T10:48:38.668Z,27.20
2022-11-28T10:51:21.291Z,31.10
2022-11-28T10:54:11.590Z,23.70
2022-11-28T10:56:52.722Z,27.70
2022-11-28T10:59:37.331Z,26.50
2022-11-28T11:02:31.043Z,24.80
2022-11-28T11:05:03.683Z,22.80
2022-11-28T11:07:37.225Z,25.90
2022-11-28T11:10:21.017Z,27.00
2022-11-28T11:12:54.783Z,27.70
2022-11-28T11:15:33.734Z,25.20
2022-11-28T11:18:22.137Z,26.40
2022-11-28T11:21:08.509Z,26.00
2022-11-28T11:23:41.047Z,23.30
2022-11-28T11:26:24.548Z,24.40
2022-11-28T11:28:57.571Z,21.30
2022-11-28T11:31:33.290Z,24.90
2022-11-28T11:34:17.096Z,28.60
2022-11-28T11:36:50.128Z,22.90
2022-11-28T11:39:26.557Z,23.10
2022-11-28T11:42:23.343Z,20.80
2022-11-28T11:44:58.712Z,24.20
2022-11-28T11:47:46.209Z,26.40
2022-11-28T11:50:24.550Z,24.10
2022-11-28T11:53:15.278Z,24.20
2022-11-28T11:55:53.426Z,25.60
2022-11-28T11:58:30.367Z,22.90
2022-11-28T12:01:04.426Z,20.30
2022-11-28T12:03:42.013Z,23.90
2022-11-28T12:06:23.215Z,30.30
2022-11-28T12:09:02.647Z,22.90
2022-11-28T12:11:45.469Z,24.60
2022-11-28T12:14:33.816Z,19.80
2022-11-28T12:20:37.745Z,24.90
2022-11-28T12:23:26.146Z,21.50
2022-11-28T12:26:10.741Z,21.60
2022-11-28T12:29:01.354Z,21.50
2022-11-28T12:31:46.113Z,20.80
2022-11-28T12:34:31.701Z,22.00
2022-11-28T12:37:16.376Z,18.80
2022-11-28T12:40:01.038Z,25.00
2022-11-28T12:43:03.098Z,29.70
2022-11-28T12:45:48.859Z,35.90
2022-11-28T12:48:40.569Z,25.50
2022-11-28T12:51:24.502Z,24.60
2022-11-28T12:54:17.931Z,21.70
2022-11-28T12:57:03.482Z,28.00
2022-11-28T12:59:44.796Z,26.90
2022-11-28T13:02:33.320Z,22.00
2022-11-28T13:05:32.584Z,20.50
2022-11-28T13:08:48.260Z,21.60
2022-11-28T13:11:38.777Z,19.40
2022-11-28T13:14:23.396Z,23.90
2022-11-28T13:17:13.662Z,20.60
2022-11-28T13:19:56.357Z,19.60
2022-11-28T13:22:37.176Z,20.50
2022-11-28T13:25:23.834Z,21.80
2022-11-28T13:28:07.972Z,19.50
2022-11-28T13:30:47.850Z,25.80
2022-11-28T13:33:37.196Z,19.90
2022-11-28T13:39:18.564Z,20.10
2022-11-28T13:42:28.298Z,26.30
2022-11-28T13:45:01.473Z,25.10
2022-11-28T13:47:37.182Z,23.30
2022-11-28T13:50:39.325Z,22.90
2022-11-28T13:53:28.683Z,25.10
2022-11-28T13:56:27.741Z,23.40
2022-11-28T13:59:02.903Z,27.70
2022-11-28T14:01:49.766Z,29.80
2022-11-28T14:04:22.811Z,34.20
2022-11-28T14:07:00.138Z,31.00
2022-11-28T14:09:44.802Z,32.50
2022-11-28T14:12:26.141Z,45.70
2022-11-28T14:15:23.177Z,37.90
2022-11-28T14:18:31.463Z,36.10
2022-11-28T14:21:17.952Z,37.00
2022-11-28T14:23:59.233Z,34.30
2022-11-28T14:26:37.365Z,32.00
2022-11-28T14:29:22.661Z,30.80
2022-11-28T14:32:22.180Z,28.70
2022-11-28T14:34:51.019Z,29.30
2022-11-28T14:37:56.267Z,30.10
2022-11-28T14:41:11.849Z,32.70
2022-11-28T14:43:46.926Z,38.50
2022-11-28T14:46:32.705Z,35.60
2022-11-28T14:49:27.193Z,43.50
2022-11-28T14:52:41.198Z,37.30
2022-11-28T14:55:25.939Z,37.60
2022-11-28T14:58:03.127Z,39.90
2022-11-28T15:00:47.643Z,28.40
2022-11-28T15:03:37.276Z,31.00
2022-11-28T15:06:19.208Z,32.30
2022-11-28T15:09:04.613Z,32.30
2022-11-28T15:12:08.611Z,28.70
2022-11-28T15:14:43.730Z,29.00
2022-11-28T15:17:21.070Z,32.50
2022-11-28T15:19:54.949Z,31.20
2022-11-28T15:22:42.824Z,32.10
2022-11-28T15:25:25.281Z,35.90
2022-11-28T15:28:00.333Z,30.50
2022-11-28T15:30:34.193Z,32.30
2022-11-28T15:33:07.244Z,32.00
2022-11-28T15:35:40.145Z,42.40
2022-11-28T15:38:20.103Z,34.10
2022-11-28T15:40:55.853Z,38.70
2022-11-28T15:43:30.757Z,38.80
2022-11-28T15:46:06.034Z,55.20
2022-11-28T15:48:48.283Z,43.00
2022-11-28T15:51:30.541Z,39.60
2022-11-28T15:54:04.864Z,40.60
2022-11-28T15:56:38.619Z,43.50
2022-11-28T15:59:13.769Z,50.30
2022-11-28T16:01:47.395Z,44.70
2022-11-28T16:04:25.124Z,41.70
2022-11-28T16:07:00.311Z,41.60
2022-11-28T16:09:36.156Z,41.50
2022-11-28T16:12:15.706Z,39.80
2022-11-28T16:14:49.647Z,41.10
2022-11-28T16:17:27.299Z,44.00
2022-11-28T16:20:00.641Z,41.20
2022-11-28T16:22:37.789Z,43.70
2022-11-28T16:25:24.491Z,44.50
2022-11-28T16:27:57.825Z,40.90
2022-11-28T16:30:47.637Z,38.40
2022-11-28T16:33:42.231Z,34.90
2022-11-28T16:36:27.372Z,37.10
2022-11-28T16:39:14.596Z,37.30
2022-11-28T16:41:52.233Z,37.90
2022-11-28T16:44:26.687Z,43.20
2022-11-28T16:47:00.571Z,35.00
2022-11-28T16:49:40.636Z,32.20
2022-11-28T16:52:47.184Z,33.90
2022-11-28T16:55:46.825Z,31.40
2022-11-28T16:58:23.463Z,34.50
2022-11-28T17:01:06.516Z,34.00
2022-11-28T17:03:51.760Z,30.20
2022-11-28T17:06:34.224Z,31.50
2022-11-28T17:09:08.280Z,38.70
2022-11-28T17:11:45.052Z,37.40
2022-11-28T17:14:17.917Z,44.60
2022-11-28T17:16:50.755Z,39.70
2022-11-28T17:19:23.306Z,35.70
2022-11-28T17:21:58.845Z,39.60
2022-11-28T17:24:35.649Z,47.20
2022-11-28T17:27:09.170Z,35.40
2022-11-28T17:29:42.698Z,36.30
2022-11-28T17:32:16.986Z,38.90
2022-11-28T17:34:49.589Z,40.80
2022-11-28T17:37:22.374Z,46.70
2022-11-28T17:40:12.457Z,41.60
2022-11-28T17:42:45.061Z,41.50
2022-11-28T17:45:18.247Z,40.80
2022-11-28T17:47:50.825Z,38.80
2022-11-28T17:50:23.486Z,41.70
2022-11-28T17:52:56.360Z,41.80
2022-11-28T17:55:29.142Z,38.50
2022-11-28T17:58:01.769Z,36.30
2022-11-28T18:00:34.336Z,49.40
2022-11-28T18:03:07.791Z,45.60
2022-11-28T18:05:43.564Z,44.10
2022-11-28T18:08:21.923Z,45.50
2022-11-28T18:11:04.931Z,46.00
2022-11-28T18:13:41.512Z,40.00
2022-11-28T18:16:15.329Z,41.00
2022-11-28T18:18:48.781Z,41.60
2022-11-28T18:21:22.048Z,45.30
2022-11-28T18:23:54.985Z,43.40
2022-11-28T18:26:29.077Z,33.10
2022-11-28T18:29:03.972Z,45.40
2022-11-28T18:31:38.613Z,39.00
2022-11-28T18:34:12.370Z,42.70
2022-11-28T18:36:45.350Z,45.30
2022-11-28T18:39:18.160Z,39.90
2022-11-28T18:41:51.083Z,51.10
2022-11-28T18:44:24.140Z,37.80
2022-11-28T18:46:57.176Z,37.20
2022-11-28T18:49:30.128Z,41.00
2022-11-28T18:52:03.126Z,38.60
2022-11-28T18:54:38.591Z,36.80
2022-11-28T18:57:12.196Z,35.70
2022-11-28T18:59:52.878Z,38.90
2022-11-28T19:02:28.027Z,38.10
2022-11-28T19:05:01.361Z,38.10
2022-11-28T19:07:33.943Z,35.70
2022-11-28T19:10:07.446Z,63.90
2022-11-28T19:12:41.326Z,45.80
2022-11-28T19:15:14.396Z,43.20
2022-11-28T19:17:47.113Z,36.40
2022-11-28T19:20:20.145Z,45.30
2022-11-28T19:22:53.555Z,42.50
2022-11-28T19:25:27.372Z,44.60
2022-11-28T19:28:00.148Z,46.40
2022-11-28T19:30:33.119Z,42.70
2022-11-28T19:33:06.590Z,39.90
2022-11-28T19:35:39.424Z,39.40
2022-11-28T19:38:12.187Z,39.90
2022-11-28T19:40:45.182Z,45.00
2022-11-28T19:43:17.775Z,45.90
2022-11-28T19:45:59.422Z,41.50
2022-11-28T19:48:34.759Z,45.30
2022-11-28T19:51:09.466Z,43.60
2022-11-28T19:53:45.031Z,44.60
2022-11-28T19:56:20.266Z,41.40
2022-11-28T19:58:53.286Z,46.30
2022-11-28T20:01:27.085Z,46.50
2022-11-28T20:04:00.558Z,43.10
2022-11-28T20:06:35.336Z,47.60
2022-11-28T20:09:12.624Z,36.20
2022-11-28T20:11:47.809Z,47.10
2022-11-28T20:14:22.364Z,46.60
2022-11-28T20:16:55.787Z,49.70
2022-11-28T20:19:29.236Z,48.70
2022-11-28T20:22:02.566Z,44.90
2022-11-28T20:24:35.459Z,48.80
2022-11-28T20:27:08.731Z,38.80
2022-11-28T20:29:41.632Z,41.30
2022-11-28T20:32:14.634Z,39.60
2022-11-28T20:34:48.247Z,38.40
2022-11-28T20:37:21.099Z,42.40
2022-11-28T20:39:53.895Z,41.50
2022-11-28T20:42:26.651Z,36.40
2022-11-28T20:44:59.133Z,40.20
2022-11-28T20:47:34.603Z,34.80
2022-11-28T20:50:09.615Z,34.40
2022-11-28T20:52:42.255Z,38.30
2022-11-28T20:55:15.512Z,37.30
2022-11-28T20:57:48.394Z,39.50
2022-11-28T21:00:26.618Z,38.00
2022-11-28T21:02:59.535Z,42.10
2022-11-28T21:05:32.103Z,39.70
2022-11-28T21:08:04.989Z,42.90
2022-11-28T21:10:38.706Z,40.00
2022-11-28T21:13:11.441Z,31.80
2022-11-28T21:15:46.733Z,41.80
2022-11-28T21:18:19.536Z,46.60
2022-11-28T21:20:53.046Z,51.70
2022-11-28T21:23:25.750Z,53.20
2022-11-28T21:25:58.324Z,46.40
2022-11-28T21:28:30.845Z,49.30
2022-11-28T21:31:07.598Z,43.50
2022-11-28T21:33:40.358Z,51.90
2022-11-28T21:36:15.391Z,43.90
2022-11-28T21:38:52.034Z,51.30
2022-11-28T21:41:28.538Z,53.90
2022-11-28T21:44:02.275Z,50.00
2022-11-28T21:46:34.866Z,47.50
2022-11-28T21:49:07.438Z,56.80
2022-11-28T21:51:43.393Z,51.30
2022-11-28T21:54:16.556Z,46.50
2022-11-28T21:56:50.368Z,46.10
2022-11-28T21:59:23.821Z,54.30
2022-11-28T22:01:56.611Z,51.90
2022-11-28T22:04:29.278Z,59.20
2022-11-28T22:07:01.807Z,53.90
2022-11-28T22:09:34.911Z,48.20
2022-11-28T22:12:09.055Z,47.30
2022-11-28T22:14:41.588Z,48.10
2022-11-28T22:17:14.369Z,46.10
2022-11-28T22:19:47.666Z,47.40
2022-11-28T22:22:20.289Z,53.80
2022-11-28T22:24:52.827Z,56.90
2022-11-28T22:27:25.629Z,51.40
2022-11-28T22:29:58.792Z,70.80
2022-11-28T22:32:34.447Z,56.30
2022-11-28T22:35:09.430Z,44.70
2022-11-28T22:37:42.226Z,52.30
2022-11-28T22:40:17.501Z,47.20
2022-11-28T22:42:50.121Z,47.30
2022-11-28T22:45:23.036Z,44.30
2022-11-28T22:47:55.789Z,46.50
2022-11-28T22:50:28.332Z,46.00
2022-11-28T22:53:00.914Z,43.00
2022-11-28T22:55:35.665Z,53.60
2022-11-28T22:58:08.524Z,46.20
2022-11-28T23:00:41.382Z,42.60
2022-11-28T23:03:14.293Z,40.60
2022-11-28T23:05:49.299Z,59.50
2022-11-28T23:08:24.060Z,58.40
2022-11-28T23:10:57.286Z,42.20
2022-11-28T23:13:30.132Z,52.70
2022-11-28T23:16:15.213Z,47.10
2022-11-28T23:18:50.430Z,47.70
2022-11-28T23:21:24.916Z,52.00
2022-11-28T23:23:57.752Z,51.20
2022-11-28T23:26:33.919Z,48.50
2022-11-28T23:29:08.631Z,49.20
2022-11-28T23:31:42.824Z,46.30
2022-11-28T23:34:16.419Z,54.60
2022-11-28T23:36:49.762Z,50.20
2022-11-28T23:39:24.327Z,44.80
2022-11-28T23:41:59.043Z,43.20
2022-11-28T23:44:31.612Z,44.60
2022-11-28T23:47:04.332Z,50.00
2022-11-28T23:49:36.910Z,58.20
2022-11-28T23:52:09.772Z,65.10
2022-11-28T23:54:42.484Z,59.60
2022-11-28T23:57:15.407Z,50.10
2022-11-28T23:59:47.910Z,42.80
